Pelham, New Hampshire
Current Conditions -  °F | °C
As of 8:54 AM on Tuesday 21 Oct 2014 (Local Time) from KLWM Reporting Station
Overcast Overcast  
Wind Chill: 48°   Ceiling: 4800
Heat Index: 48°   Visibility: 10mi
Dew Point: 44°   Wind: 0mph
Humidity: 86%   Direction: NA
Pressure: 30.02"   Gusts: NA
Location:  42.73°N, 71.32°W
Report Text: KLWM 211254Z 00000KT 10SM OVC048 09/07 A3002 RMK AO2 SLP166 T00890067
Loading
Personal Weather Stations






























Interactive Weather Map
Tropical Storm Tracking
New forecast layout! Learn more

10-Day Weather Forecast

Advertisements
Track Severe Weather on mobile